Saturday, April 25, 2015, 10:23 AM EDT

KDOV, Dover Air Force Base

Location: Dover, DE, United States Lat: 39.133
Local Time: 10:23 AM EDT (14:23 GMT) Lon: -75.467
Time Zone: US/Eastern Elev: 29 ft

Show me the last for .
Show Decoded

2015-04-25 09:58 METAR KDOV 251358Z AUTO 31007KT 10SM SCT095 07/M03 A2992 RMK AO2 SLP135
                 T00741028 VISNO RWY19 CHINO RWY19 $ =
2015-04-25 08:58 METAR KDOV 251258Z AUTO 30008KT 10SM SCT100 06/M03 A2994 RMK AO2 SLP142
                 T00631034 VISNO RWY19 CHINO RWY19 $ =
2015-04-25 07:58 METAR KDOV 251158Z AUTO 31004KT 10SM BKN120 06/M03 A2992 =
2015-04-25 06:58 METAR KDOV 251058Z AUTO 28004KT 10SM FEW140 03/01 A2994 RMK AO2 SLP142 T00300006
                 VISNO RWY19 CHINO RWY19 $ =
2015-04-25 05:58 METAR KDOV 250958Z AUTO 26001KT 10SM CLR 03/M01 A2997 =
2015-04-25 04:58 METAR KDOV 250858Z AUTO 36001KT 10SM CLR 03/M02 A2993 RMK AO2 SLP139 T00321020
                 50000 VISNO RWY19 CHINO RWY19 $ =
2015-04-25 03:58 METAR KDOV 250758Z AUTO VRB04KT 10SM CLR 03/M02 A2993 RMK AO2 SLP139 T00271024
                 VISNO RWY19 CHINO RWY19 $ =
2015-04-25 02:58 METAR KDOV 250658Z AUTO 03006KT 10SM CLR 04/M03 A2993 RMK AO2 SLP139 T00351026
                 VISNO RWY19 CHINO RWY19 $ =
2015-04-25 01:58 METAR KDOV 250558Z AUTO 06009KT 10SM CLR 05/M01 A2993 RMK AO2 SLP139 T00491014
                 10110 20049 53012 VISNO RWY19 CHINO RWY19 $ =
2015-04-25 00:58 METAR KDOV 250458Z AUTO 05009KT 10SM CLR 06/M01 A2992 RMK AO2 SLP135 T00591013
                 401360023 VISNO RWY19 CHINO RWY19 $ =
2015-04-24 23:58 METAR KDOV 250358Z AUTO 29005KT 10SM CLR 06/M02 A2989 =
2015-04-24 22:58 METAR KDOV 250258Z AUTO 23003KT 10SM CLR 07/M01 A2989 =
2015-04-24 21:58 METAR KDOV 250158Z AUTO 25003KT 10SM CLR 09/M03 A2989 =
2015-04-24 19:58 METAR KDOV 242358Z AUTO 31008KT 10SM CLR 11/M05 A2987 RMK AO2 SLP118 T01121046
                 10136 20112 53007 VISNO RWY19 CHINO RWY19 $ =
2015-04-24 18:58 METAR KDOV 242258Z AUTO 30011G19KT 10SM CLR 13/M05 A2985 =
2015-04-24 17:58 METAR KDOV 242158Z AUTO 30013G22KT 10SM CLR 13/M05 A2985 =
2015-04-24 16:58 METAR KDOV 242058Z AUTO 29017G26KT 7SM FEW085 13/M05 A2984 =
2015-04-24 15:58 METAR KDOV 241958Z AUTO 29015G26KT 9SM CLR 12/M05 A2985 =
2015-04-24 14:58 METAR KDOV 241858Z AUTO 28016G30KT 250V310 7SM CLR 12/M06 A2986 RMK AO2 PK WND
                 27030/50 SLP115 T01201059 VISNO RWY19 CHINO RWY19 $ =
2015-04-24 13:58 METAR KDOV 241758Z AUTO 30021G28KT 8SM CLR 11/M06 A2987 =
2015-04-24 12:58 METAR KDOV 241658Z AUTO 28014G25KT 9SM CLR 10/M04 A2989 RMK AO2 SLP125 T01021044
                 VISNO RWY19 CHINO RWY19 $ =
2015-04-24 12:04 METAR KDOV 241604Z AUTO 31016G23KT 10SM CLR 09/M04 A2991 RMK AO2 WSHFT 1550 =
2015-04-24 11:58 METAR KDOV 241558Z AUTO 28017G23KT 10SM CLR 09/M04 A2991 RMK AO2 SLP132
                 T00901040 VISNO RWY19 CHINO RWY19 $ =
2015-04-24 10:58 METAR KDOV 241458Z AUTO 30017G22KT 10SM FEW055 08/M04 A2993 RMK AO2 PK WND
                 27027/28 SLP139 T00791039 56009 VISNO RWY19 CHINO RWY19 $ =

Support USWX by starting your Amazon purchase here.